Airport View

Enter ICAO identifier to see the current METAR for that AWOS.

KFNL for example

KFOA 250120Z AUTO 00000KT 10SM CLR 21/15 A3007

25 Jul 2014 01:32

Frequency: 120.175

Phone: 618-662-8355

Other Area AWOS: KOLY - KFWC - KSLO - K1H2

TAF KEVV 242320Z 2500/2524 VRB02KT P6SM SKC FM251400 16004KT P6SM SCT030